»·PEaware :: N145BE KSMF-KFAT

N145BE :: KSMF-KFAT

FLIGHT INFORMATION

Flight Status: Arrived
Operator: Privately registered:
United States
More flights under this callsign
Pilot: Santiago S. (22950)
Aircraft: BOEING 737-800
(B738)
More flights by this aircraft type
Origin: KSMF Sacramento Intl
United States
Destination: KFAT Fresno Yosemite Intl
United States
More flights between these airports :: More routes between these airports
Route: +SAC V23 EBTUW CZQ
File this flight plan on PilotEdge
Remarks:
Altitude:
(Current/Filed)
190ft
Speed:
(Current/Filed)
420kts
Departed: 01-Nov-19 03:19 PM
Arrived: 01-Nov-19 03:59 PM
Distance/Time
Traveled:
145nm/0:40
Distance/Time
To Go:
Arrived

Flight Plot

Page will automatically refresh every two minutes.

Flight plan parsing failed; only flown route is shown


Map Options




Map Legend


Flown Route
Filed Route
Departure Airport
Arrival Airport
Navaid (VOR, NDB)
Fix

Horizontal Profiles

Position Reports

Time Latitude Longitude Heading Altitude Ground
Speed
01-Nov-19 14:44 38.695513 -121.586965 179 27ft 0kts
01-Nov-19 14:45 38.695513 -121.586965 179 27ft 0kts
01-Nov-19 14:46 38.695513 -121.586965 179 27ft 0kts
01-Nov-19 14:47 38.695513 -121.586965 179 27ft 0kts
01-Nov-19 14:48 38.695513 -121.586965 179 27ft 0kts
01-Nov-19 14:49 38.695513 -121.586965 179 27ft 0kts
01-Nov-19 14:50 38.695513 -121.586965 179 27ft 0kts
01-Nov-19 14:51 38.695513 -121.586965 179 27ft 0kts
01-Nov-19 14:52 38.695513 -121.586965 179 27ft 0kts
01-Nov-19 14:53 38.695513 -121.586965 179 27ft 0kts
01-Nov-19 14:54 38.695513 -121.586965 179 27ft 0kts
01-Nov-19 14:55 38.695513 -121.586965 179 27ft 0kts
01-Nov-19 14:56 38.695513 -121.586965 179 27ft 0kts
01-Nov-19 14:57 38.695513 -121.586965 179 27ft 0kts
01-Nov-19 14:58 38.695513 -121.586965 179 27ft 0kts
01-Nov-19 14:59 38.695513 -121.586965 179 27ft 0kts
01-Nov-19 15:00 38.695513 -121.586965 179 27ft 0kts
01-Nov-19 15:01 38.695513 -121.586965 179 27ft 0kts
01-Nov-19 15:02 38.695513 -121.586965 179 27ft 0kts
01-Nov-19 15:03 38.695513 -121.586965 179 27ft 0kts
01-Nov-19 15:04 38.695513 -121.586965 179 27ft 0kts
01-Nov-19 15:05 38.695513 -121.586965 179 27ft 0kts
01-Nov-19 15:07 38.695513 -121.586965 179 27ft 0kts
01-Nov-19 15:08 38.695513 -121.586965 179 27ft 0kts
01-Nov-19 15:09 38.695513 -121.586965 179 27ft 0kts
01-Nov-19 15:10 38.695513 -121.586965 179 27ft 0kts
01-Nov-19 15:11 38.695447 -121.586522 63 27ft 8kts
01-Nov-19 15:12 38.696369 -121.586110 2 27ft 2kts
01-Nov-19 15:13 38.696895 -121.584570 90 27ft 18kts
01-Nov-19 15:14 38.697112 -121.582937 30 26ft 9kts
01-Nov-19 15:15 38.703037 -121.582758 0 27ft 26kts
01-Nov-19 15:16 38.705767 -121.582718 0 27ft 18kts
01-Nov-19 15:17 38.707024 -121.581602 88 27ft 0kts
01-Nov-19 15:18 38.706182 -121.580088 179 27ft 0kts
01-Nov-19 15:19 38.690032 -121.580433 181 75ft 185kts
01-Nov-19 15:20 38.638138 -121.560211 133 2633ft 242kts
01-Nov-19 15:21 38.589827 -121.498105 150 6423ft 256kts
01-Nov-19 15:22 38.520946 -121.512715 200 9851ft 269kts
01-Nov-19 15:22 38.459825 -121.527046 168 12527ft 278kts
01-Nov-19 15:24 38.383855 -121.469811 121 15924ft 289kts
01-Nov-19 15:25 38.334226 -121.387541 128 18631ft 301kts
01-Nov-19 15:26 38.274747 -121.299232 129 19210ft 367kts
01-Nov-19 15:26 38.214844 -121.210419 129 19205ft 426kts
01-Nov-19 15:28 38.127602 -121.081613 129 19169ft 413kts
01-Nov-19 15:28 38.062936 -120.990416 138 19154ft 420kts
01-Nov-19 15:29 37.971176 -120.897977 140 19133ft 420kts
01-Nov-19 15:30 37.880029 -120.805684 140 19109ft 420kts
01-Nov-19 15:31 37.788957 -120.713687 140 19082ft 419kts
01-Nov-19 15:32 37.697706 -120.621785 140 19054ft 419kts
01-Nov-19 15:33 37.606416 -120.530115 140 19038ft 419kts
01-Nov-19 15:34 37.515392 -120.438982 140 19037ft 419kts
01-Nov-19 15:35 37.427781 -120.351647 140 18997ft 369kts
01-Nov-19 15:36 37.348160 -120.272348 140 16607ft 368kts
01-Nov-19 15:37 37.268476 -120.193239 141 13990ft 354kts
01-Nov-19 15:38 37.194454 -120.119999 141 11388ft 329kts
01-Nov-19 15:39 37.126942 -120.053364 141 11027ft 293kts
01-Nov-19 15:40 37.062878 -119.990259 140 11027ft 292kts
01-Nov-19 15:41 36.999261 -119.927731 140 10579ft 291kts
01-Nov-19 15:42 36.938157 -119.867186 132 8768ft 272kts
01-Nov-19 15:43 36.895461 -119.792662 122 6979ft 261kts
01-Nov-19 15:44 36.854989 -119.717661 122 5190ft 268kts
01-Nov-19 15:45 36.813193 -119.639180 122 4002ft 259kts
01-Nov-19 15:46 36.765153 -119.577185 180 2334ft 256kts
01-Nov-19 15:47 36.738160 -119.639195 272 2008ft 217kts
01-Nov-19 15:48 36.754386 -119.706427 325 1932ft 203kts
01-Nov-19 15:49 36.796675 -119.749789 303 1126ft 196kts
01-Nov-19 15:50 36.825613 -119.805285 304 1722ft 178kts
01-Nov-19 15:51 36.863665 -119.804303 63 2417ft 187kts
01-Nov-19 15:52 36.851953 -119.744410 124 2481ft 195kts
01-Nov-19 15:53 36.819474 -119.689003 122 2602ft 195kts
01-Nov-19 15:54 36.789251 -119.631219 122 1906ft 198kts
01-Nov-19 15:55 36.748496 -119.605908 217 1665ft 175kts
01-Nov-19 15:56 36.751643 -119.658969 293 1306ft 179kts
01-Nov-19 15:57 36.771645 -119.708236 304 340ft 137kts
01-Nov-19 15:58 36.779895 -119.723871 237 336ft 14kts
01-Nov-19 15:59 36.779637 -119.724162 216 336ft 0kts
01-Nov-19 16:00 36.777678 -119.725869 215 334ft 16kts

Navigation Log

Ident Type
Flight plan parsing failed, navigation log unavailable